Airfield :
LOGIN :

Register | Disclaimer

   EN    FR    IT 

 










Legend :    VFR   Marginal VFR   IFR   Intensive IFR   Very Intensive IFR
Visi :
Ceiling :
>= 8 km
>= 3000ft
5 to 8 km
1000 to 3000 ft
1500m to 5 km
500 to 1000 ft
800 to 1500m
200 to 500 ft
< 800m
< 200 ft
Symbols :   Thunderstorms  Fog  Heavy snow  Heavy precipitations  Wind > 20 kt
SIGMETs :     Misc.  Thunderstorms  Icing  Turbulence  Mountain Waves  Volcanic Ashes







- Airport Elevation : 461 ft
- IATA code : WIE


ETOU - Wiesbaden Army

CURRENT METAR :
  • 101932Z AUTO 33006G14KT 9999 FEW022 04/M04 A3016 RMK AO2 RAB03E25DZB25E32 SLP221 $

EXPIRED METARs :
  • 101906Z AUTO 34013G22KT 9999 -RA FEW024 04/M05 A3016 RMK AO2 RAB03 SLP221 $
  • 101856Z AUTO 32013KT 9999 CLR 04/M05 A3015 RMK AO2 RAB41E50 SLP218 P0000 T00431050 $
  • 101756Z AUTO 32012KT 9999 FEW025 FEW034 04/M04 A3016 RMK AO2 SLP221 60002 T00421036 10061 20038 51008 $

TAF TAF ETOU
Valid from the 10 at 12:00 until the 11 at 18:00 UTC


101200Z 1012/1118 29012KT 9999 BKN025 QNH3014INS
BECMG 1015/1016 29009KT 9999 SCT025 QNH3013INS
BECMG 1101/1102 30012KT 9999 SCT015 BKN020 QNH3015INS TX08/1111Z TN02/1107Z
No reported NOTAMs for that airfield.
2 SIGMETs reported for the Langen FIR (EDGG) :
 
Severe turbulence
EDGG SIGMET 3 VALID 102000/102330 EDZF
EDGG LANGEN FIR SEV TURB FCST APRX 50NM WID LINE BTN N5157 E00655 - N4755 E00906 FL180/240 MOV E NC=
Severe turbulence
EDGG SIGMET 2 VALID 101704/102000 EDZF
EDGG LANGEN FIR SEV TURB FCST APRX 40NM WID LINE BTN N5103 E00555 - N4755 E00906 FL180/240 MOV E NC=



MET'MAP, your aeronautical weather chart ! - Copyright ORBIFLY December 2007 - Disclaimer

ORBIFLY MET'MAP TEAM :

Programming & Development : Alexandra Zaïnal
Concept & Development : Baudouin d'Aumeries
Co-Development & Prog : Marc-Olivier Méhu
Technical & hardware support : Manuel Goepfert

Contact : metmap@orbifly.com




SOURCES & CREDITS :

   NOAA